Time;durP1;ratioP1;P1;durP2;ratioP2;P2;SDS_P1;SDS_P2;PMS_P1;PMS_P2;Temp;Humidity;BMP_temperature;BMP_pressure;BME280_temperature;BME280_humidity;BME280_pressure;Samples;Min_cycle;Max_cycle;Signal;HPM_P1;HPM_P2
2022/12/05 00:02:09;;;;;;;37.83;14.90;;;4.50;99.90;;;;;;5054088;28;20111;-67
2022/12/05 00:04:34;;;;;;;29.65;13.32;;;4.50;99.90;;;;;;5052126;28;20040;-68
2022/12/05 00:07:00;;;;;;;30.00;13.48;;;4.50;99.90;;;;;;5053368;28;20033;-67
2022/12/05 00:09:27;;;;;;;32.22;13.10;;;4.50;99.90;;;;;;5053798;28;20153;-67
2022/12/05 00:11:52;;;;;;;31.48;12.70;;;4.50;99.90;;;;;;5053795;28;20464;-68
2022/12/05 00:14:18;;;;;;;29.73;13.50;;;4.60;99.90;;;;;;5052740;28;20063;-67
2022/12/05 00:16:44;;;;;;;31.05;11.75;;;4.60;99.90;;;;;;5053700;28;20120;-67
2022/12/05 00:19:13;;;;;;;30.05;11.90;;;4.60;99.90;;;;;;5053554;28;20033;-67
2022/12/05 00:21:39;;;;;;;24.05;12.20;;;4.60;99.90;;;;;;5053699;28;20112;-67
2022/12/05 00:24:07;;;;;;;24.23;10.90;;;4.60;99.90;;;;;;5052866;28;20462;-67
2022/12/05 00:26:33;;;;;;;24.67;11.77;;;4.60;99.90;;;;;;5053336;28;20494;-69
2022/12/05 00:28:59;;;;;;;31.92;11.95;;;4.60;99.90;;;;;;5053370;28;20049;-69
2022/12/05 00:31:26;;;;;;;27.63;10.43;;;4.70;99.90;;;;;;5053559;28;20405;-69
2022/12/05 00:33:52;;;;;;;27.92;11.98;;;4.70;99.90;;;;;;5051339;28;20412;-67
2022/12/05 00:36:22;;;;;;;25.13;10.98;;;4.60;99.90;;;;;;5053185;28;20516;-68
2022/12/05 00:38:48;;;;;;;25.48;11.15;;;4.70;99.90;;;;;;5053026;28;20445;-67
2022/12/05 00:41:17;;;;;;;24.88;10.90;;;4.70;99.90;;;;;;5053332;28;20033;-69
2022/12/05 00:43:43;;;;;;;22.63;11.63;;;4.70;99.90;;;;;;5052631;28;20124;-67
2022/12/05 00:46:18;;;;;;;26.80;12.05;;;4.70;99.90;;;;;;5053156;28;20045;-68
2022/12/05 00:48:44;;;;;;;30.85;12.55;;;4.70;99.90;;;;;;5053145;28;20045;-67
2022/12/05 00:51:31;;;;;;;30.52;12.65;;;4.70;99.90;;;;;;5052844;28;20037;-67
2022/12/05 00:53:59;;;;;;;28.02;11.80;;;4.70;99.90;;;;;;5052205;28;20436;-67
2022/12/05 00:56:26;;;;;;;26.50;11.38;;;4.80;99.90;;;;;;5052982;28;20117;-67
2022/12/05 00:58:53;;;;;;;31.95;13.30;;;4.70;99.90;;;;;;5052822;28;20037;-67
2022/12/05 01:01:32;;;;;;;33.15;12.75;;;4.80;99.90;;;;;;5051710;28;20416;-69
2022/12/05 01:04:00;;;;;;;36.15;13.93;;;4.80;99.90;;;;;;5052004;28;20448;-67
2022/12/05 01:06:26;;;;;;;35.63;14.35;;;4.80;99.90;;;;;;5034622;28;20379;-68
2022/12/05 01:08:54;;;;;;;29.60;13.10;;;4.80;99.90;;;;;;5052726;28;20041;-67
2022/12/05 01:11:20;;;;;;;28.67;12.73;;;4.80;99.90;;;;;;5052679;28;20041;-67
2022/12/05 01:13:46;;;;;;;30.15;13.13;;;4.80;99.90;;;;;;5051852;28;20037;-70
2022/12/05 01:16:31;;;;;;;32.53;12.93;;;4.80;99.90;;;;;;5050974;28;20129;-68
2022/12/05 01:18:57;;;;;;;26.70;12.13;;;4.80;99.90;;;;;;5052735;28;20036;-67
2022/12/05 01:21:24;;;;;;;32.95;13.38;;;4.80;99.90;;;;;;5052522;28;20033;-67
2022/12/05 01:23:50;;;;;;;28.20;13.50;;;4.80;99.90;;;;;;5051716;28;20055;-67
2022/12/05 01:26:18;;;;;;;32.45;15.05;;;4.80;99.90;;;;;;5052109;28;20040;-67
2022/12/05 01:28:44;;;;;;;34.17;15.10;;;4.80;99.90;;;;;;5051123;28;20044;-67
2022/12/05 01:31:26;;;;;;;32.45;13.50;;;4.80;99.90;;;;;;5052091;28;20516;-67
2022/12/05 01:33:53;;;;;;;33.25;13.68;;;4.80;99.90;;;;;;5051563;28;20116;-67
2022/12/05 01:36:20;;;;;;;35.45;14.00;;;4.80;99.90;;;;;;5052024;28;20151;-67
2022/12/05 01:38:46;;;;;;;34.83;14.82;;;4.80;99.90;;;;;;5052380;28;20118;-67
2022/12/05 01:41:14;;;;;;;33.22;13.38;;;4.80;99.90;;;;;;5051960;28;20512;-67
2022/12/05 01:43:55;;;;;;;30.13;13.52;;;4.80;99.90;;;;;;5051948;28;20045;-71
2022/12/05 01:46:21;;;;;;;33.97;14.60;;;4.80;99.90;;;;;;5051849;28;20044;-67
2022/12/05 01:48:47;;;;;;;31.27;13.38;;;4.80;99.90;;;;;;5050508;28;20509;-67
2022/12/05 01:51:13;;;;;;;31.33;13.60;;;4.80;99.90;;;;;;5051513;28;20556;-68
2022/12/05 01:53:39;;;;;;;33.50;13.52;;;4.80;99.90;;;;;;5051931;28;20080;-67
2022/12/05 01:56:05;;;;;;;32.85;14.55;;;4.80;99.90;;;;;;5051095;28;20118;-66
2022/12/05 01:58:36;;;;;;;33.90;15.55;;;4.80;99.90;;;;;;5051300;28;20091;-68
2022/12/05 02:01:02;;;;;;;30.83;13.30;;;4.80;99.90;;;;;;5051493;28;20119;-68
2022/12/05 02:03:27;;;;;;;32.80;14.88;;;4.80;99.90;;;;;;5033378;28;20138;-68
2022/12/05 02:05:55;;;;;;;32.50;14.00;;;4.80;99.90;;;;;;5050877;28;20044;-68
2022/12/05 02:08:21;;;;;;;27.98;13.57;;;4.80;99.90;;;;;;5051662;28;20056;-67
2022/12/05 02:10:50;;;;;;;40.45;13.90;;;4.80;99.90;;;;;;5051746;28;20037;-70
2022/12/05 02:13:37;;;;;;;31.10;14.13;;;4.80;99.90;;;;;;5051496;28;20044;-68
2022/12/05 02:16:13;;;;;;;36.55;13.82;;;4.80;99.90;;;;;;5033000;28;20084;-67
2022/12/05 02:18:51;;;;;;;33.55;13.73;;;4.90;99.90;;;;;;5051555;28;20044;-67
2022/12/05 02:21:20;;;;;;;35.05;15.80;;;4.80;99.90;;;;;;5051280;28;20159;-68
2022/12/05 02:24:09;;;;;;;35.65;15.45;;;4.80;99.90;;;;;;5050679;28;20033;-68
2022/12/05 02:27:00;;;;;;;35.67;14.52;;;4.90;99.90;;;;;;5033298;28;20091;-67
2022/12/05 02:29:54;;;;;;;34.70;15.18;;;4.90;99.90;;;;;;5051347;28;20037;-68
2022/12/05 02:32:36;;;;;;;33.30;14.25;;;4.90;99.90;;;;;;5049743;28;20120;-68
2022/12/05 02:35:08;;;;;;;33.25;14.65;;;4.90;99.90;;;;;;5032295;28;20091;-68
2022/12/05 02:38:00;;;;;;;38.70;16.08;;;4.90;99.90;;;;;;5033416;28;20133;-69
2022/12/05 02:40:40;;;;;;;33.92;14.07;;;4.90;99.90;;;;;;5051199;28;20064;-69
2022/12/05 02:43:29;;;;;;;32.50;14.77;;;4.90;99.90;;;;;;5051128;28;20052;-69
2022/12/05 02:45:59;;;;;;;36.95;15.32;;;4.90;99.90;;;;;;5049114;28;20049;-67
2022/12/05 02:48:28;;;;;;;36.40;15.07;;;4.90;99.90;;;;;;5050788;28;20040;-68
2022/12/05 02:50:57;;;;;;;37.50;14.68;;;4.90;99.90;;;;;;5050835;28;20037;-67
2022/12/05 02:53:26;;;;;;;32.38;14.07;;;4.90;99.90;;;;;;5050782;28;20382;-68
2022/12/05 02:55:53;;;;;;;34.20;14.48;;;4.90;99.90;;;;;;5050147;28;20114;-67
2022/12/05 02:58:33;;;;;;;39.30;16.65;;;4.90;99.90;;;;;;5050566;28;20452;-67
2022/12/05 03:00:59;;;;;;;36.60;15.48;;;4.90;99.90;;;;;;5050833;28;20041;-68
2022/12/05 03:03:25;;;;;;;36.85;15.57;;;4.90;99.90;;;;;;5050916;28;20063;-68
2022/12/05 03:06:12;;;;;;;38.65;15.88;;;4.90;99.90;;;;;;5049978;28;20371;-67
2022/12/05 03:09:24;;;;;;;38.53;15.25;;;4.90;99.90;;;;;;5050595;28;20486;-68
2022/12/05 03:11:55;;;;;;;34.13;14.43;;;4.90;99.90;;;;;;5008378;28;20052;-68
2022/12/05 03:14:30;;;;;;;34.53;13.68;;;5.00;99.90;;;;;;5011235;28;20095;-68
2022/12/05 03:17:00;;;;;;;36.92;15.68;;;5.00;99.90;;;;;;5012418;28;20081;-66
2022/12/05 03:19:35;;;;;;;33.72;15.32;;;5.00;99.90;;;;;;5012600;28;20117;-67
2022/12/05 03:22:07;;;;;;;39.05;15.00;;;5.00;99.90;;;;;;4996177;28;20128;-67
2022/12/05 03:24:36;;;;;;;36.25;13.48;;;5.00;99.90;;;;;;5011719;28;20052;-68
2022/12/05 03:27:33;;;;;;;33.67;14.38;;;5.00;99.90;;;;;;5012270;28;20079;-69
2022/12/05 03:30:02;;;;;;;37.00;15.18;;;5.00;99.90;;;;;;5012396;28;20081;-68
2022/12/05 03:32:30;;;;;;;35.13;15.88;;;5.10;99.90;;;;;;5012247;28;20093;-68
2022/12/05 03:35:23;;;;;;;36.28;15.00;;;5.10;99.90;;;;;;5011487;28;20048;-68
2022/12/05 03:38:01;;;;;;;36.30;15.77;;;5.10;99.90;;;;;;5012083;28;20054;-68
2022/12/05 03:40:44;;;;;;;37.08;15.10;;;5.10;99.90;;;;;;5012166;28;20046;-67
2022/12/05 03:43:29;;;;;;;;;;;5.10;99.90;;;;;;5043237;28;20052;-68
2022/12/05 03:46:10;;;;;;;33.35;14.50;;;5.10;99.90;;;;;;5042556;28;19923;-68
2022/12/05 03:48:56;;;;;;;36.15;14.40;;;5.10;99.90;;;;;;5054458;28;20048;-67
2022/12/05 03:51:27;;;;;;;40.50;15.43;;;5.20;99.90;;;;;;5036406;28;20060;-67
2022/12/05 03:54:05;;;;;;;38.17;14.85;;;5.20;99.90;;;;;;5053273;28;20076;-68
2022/12/05 03:56:40;;;;;;;31.42;14.02;;;5.20;99.90;;;;;;5054097;28;20569;-67
2022/12/05 03:59:26;;;;;;;39.45;15.05;;;5.20;99.90;;;;;;5054042;28;20044;-67
2022/12/05 04:01:54;;;;;;;40.67;14.80;;;5.20;99.90;;;;;;5052710;28;20045;-68
2022/12/05 04:04:29;;;;;;;38.58;15.07;;;5.20;99.90;;;;;;5052985;28;20040;-67
2022/12/05 04:06:59;;;;;;;38.00;15.82;;;5.20;99.90;;;;;;5053600;28;20041;-69
2022/12/05 04:09:32;;;;;;;35.55;14.70;;;5.20;99.90;;;;;;5052671;28;20567;-68
2022/12/05 04:12:02;;;;;;;36.67;15.00;;;5.20;99.90;;;;;;5036331;28;20155;-67
2022/12/05 04:14:34;;;;;;;35.67;14.43;;;5.30;99.90;;;;;;5052894;28;20059;-68
2022/12/05 04:17:05;;;;;;;38.53;15.33;;;5.30;99.90;;;;;;5053657;28;20103;-68
2022/12/05 04:22:24;;;;;;;31.75;13.25;;;5.30;99.90;;;;;;5053904;28;20041;-67
2022/12/05 04:28:05;;;;;;;29.98;13.95;;;5.30;99.90;;;;;;5053551;28;20084;-68
2022/12/05 04:30:47;;;;;;;32.42;13.07;;;5.30;99.90;;;;;;5052324;28;20493;-67
2022/12/05 04:33:24;;;;;;;38.40;13.93;;;5.30;99.90;;;;;;5053857;28;20049;-68
2022/12/05 04:36:08;;;;;;;29.48;13.32;;;5.30;99.90;;;;;;5051422;28;20045;-67
2022/12/05 04:38:50;;;;;;;29.25;12.70;;;5.30;99.90;;;;;;5053344;28;20493;-69
2022/12/05 04:41:23;;;;;;;31.60;13.25;;;5.30;99.90;;;;;;5053098;28;20513;-69
2022/12/05 04:43:51;;;;;;;27.88;13.45;;;5.30;99.90;;;;;;5034767;28;20088;-67
2022/12/05 04:46:19;;;;;;;32.80;12.75;;;5.30;99.90;;;;;;5053201;28;20052;-67
2022/12/05 04:48:51;;;;;;;26.05;11.88;;;5.30;99.90;;;;;;5052991;28;20501;-67
2022/12/05 04:51:22;;;;;;;33.58;13.25;;;5.40;99.90;;;;;;5053126;28;20106;-68
2022/12/05 04:53:53;;;;;;;28.80;12.27;;;5.40;99.90;;;;;;5052480;28;20048;-67
2022/12/05 04:56:21;;;;;;;26.25;11.82;;;5.40;99.90;;;;;;5052991;28;20112;-68
2022/12/05 04:58:46;;;;;;;31.38;12.68;;;5.40;99.90;;;;;;5052840;28;20075;-68
2022/12/05 05:01:28;;;;;;;28.02;11.45;;;5.40;99.90;;;;;;5052587;28;20086;-67
2022/12/05 05:04:10;;;;;;;34.30;12.70;;;5.40;99.90;;;;;;5052289;28;20094;-67
2022/12/05 05:06:37;;;;;;;28.40;13.43;;;5.40;99.90;;;;;;5052924;28;20417;-67
2022/12/05 05:09:03;;;;;;;28.35;12.45;;;5.40;99.90;;;;;;5052738;28;20099;-69
2022/12/05 05:11:32;;;;;;;24.40;11.80;;;5.40;99.90;;;;;;5052584;28;20044;-68
2022/12/05 05:13:58;;;;;;;36.40;13.05;;;5.40;99.90;;;;;;5051716;28;20085;-67
2022/12/05 05:16:26;;;;;;;25.15;12.05;;;5.40;99.90;;;;;;5052673;28;20075;-68
2022/12/05 05:18:53;;;;;;;25.05;11.80;;;5.40;99.90;;;;;;5034640;28;20047;-68
2022/12/05 05:21:31;;;;;;;27.25;11.55;;;5.40;99.90;;;;;;5052696;28;20079;-67
2022/12/05 05:23:58;;;;;;;26.60;11.07;;;5.40;99.90;;;;;;5051605;28;20044;-68
2022/12/05 05:26:25;;;;;;;27.30;13.35;;;5.40;99.90;;;;;;5052536;28;20041;-68
2022/12/05 05:28:51;;;;;;;23.27;11.55;;;5.40;99.90;;;;;;5052377;28;20041;-69
2022/12/05 05:31:19;;;;;;;24.25;10.43;;;5.40;99.90;;;;;;5052479;28;20066;-69
2022/12/05 05:33:48;;;;;;;24.88;11.98;;;5.40;99.90;;;;;;5051611;28;20064;-71
2022/12/05 05:36:14;;;;;;;24.23;10.20;;;5.40;99.90;;;;;;5051238;28;20033;-67
2022/12/05 05:38:45;;;;;;;23.92;10.63;;;5.40;99.90;;;;;;5052261;28;20043;-68
2022/12/05 05:41:16;;;;;;;24.95;11.63;;;5.40;99.90;;;;;;5052493;28;20076;-67
2022/12/05 05:43:42;;;;;;;24.75;10.77;;;5.40;99.90;;;;;;5051685;28;20175;-69
2022/12/05 05:46:09;;;;;;;19.42;11.35;;;5.40;99.90;;;;;;5052044;28;20398;-67
2022/12/05 05:48:35;;;;;;;27.05;12.02;;;5.40;99.90;;;;;;5051992;28;20044;-68
2022/12/05 05:51:02;;;;;;;26.05;12.00;;;5.40;99.90;;;;;;5051822;28;20493;-68
2022/12/05 05:53:27;;;;;;;25.85;11.52;;;5.40;99.90;;;;;;5057115;28;20113;-70
2022/12/05 05:55:53;;;;;;;27.95;11.05;;;5.40;99.90;;;;;;5071171;28;20497;-67
2022/12/05 05:58:19;;;;;;;23.73;11.00;;;5.40;99.90;;;;;;5071797;28;20041;-68
2022/12/05 06:00:44;;;;;;;23.10;11.45;;;5.40;99.90;;;;;;5071675;28;20040;-68
2022/12/05 06:03:10;;;;;;;23.30;10.63;;;5.50;99.90;;;;;;5071690;28;20040;-68
2022/12/05 06:05:36;;;;;;;27.58;12.13;;;5.50;99.90;;;;;;5070540;28;20040;-69
2022/12/05 06:08:02;;;;;;;21.90;10.55;;;5.40;99.90;;;;;;5071736;28;20040;-67
2022/12/05 06:10:29;;;;;;;22.05;10.68;;;5.50;99.90;;;;;;5071187;28;20527;-68
2022/12/05 06:12:55;;;;;;;21.83;10.18;;;5.40;99.90;;;;;;5060109;28;20107;-67
2022/12/05 06:15:21;;;;;;;19.92;10.27;;;5.40;99.90;;;;;;5062001;28;20392;-68
2022/12/05 06:17:46;;;;;;;23.33;10.55;;;5.40;99.90;;;;;;5061261;28;20104;-68
2022/12/05 06:20:12;;;;;;;20.73;10.38;;;5.40;99.90;;;;;;5057988;28;20044;-68
2022/12/05 06:22:38;;;;;;;21.08;9.70;;;5.40;99.90;;;;;;5051077;28;20535;-68
2022/12/05 06:25:04;;;;;;;18.75;9.63;;;5.50;99.90;;;;;;5049131;28;20041;-68
2022/12/05 06:27:30;;;;;;;22.85;10.07;;;5.50;99.90;;;;;;5050865;28;20048;-67
2022/12/05 06:29:56;;;;;;;19.20;9.05;;;5.50;99.90;;;;;;5051197;28;20045;-68
2022/12/05 06:32:21;;;;;;;22.25;10.75;;;5.50;99.90;;;;;;5050958;28;20053;-67
2022/12/05 06:34:47;;;;;;;18.00;9.57;;;5.50;99.90;;;;;;5050316;28;20525;-68
2022/12/05 06:37:13;;;;;;;22.92;10.68;;;5.50;99.90;;;;;;5050863;28;20051;-68
2022/12/05 06:39:38;;;;;;;18.67;8.60;;;5.50;99.90;;;;;;5061765;28;20049;-68
2022/12/05 06:42:04;;;;;;;17.38;8.10;;;5.50;99.90;;;;;;5071037;28;20047;-67
2022/12/05 06:44:30;;;;;;;14.57;8.32;;;5.60;99.90;;;;;;5070485;28;20386;-67
2022/12/05 06:46:55;;;;;;;15.13;8.27;;;5.50;99.90;;;;;;5071161;28;20043;-66
2022/12/05 06:49:25;;;;;;;14.65;7.82;;;5.50;99.90;;;;;;5070622;28;20501;-66
2022/12/05 06:51:51;;;;;;;16.35;8.32;;;5.50;99.90;;;;;;5070849;28;20603;-66
2022/12/05 06:54:17;;;;;;;16.60;8.77;;;5.50;99.90;;;;;;5070217;28;20051;-66
2022/12/05 06:56:45;;;;;;;13.82;7.88;;;5.50;99.90;;;;;;5071152;28;20435;-69
2022/12/05 06:59:10;;;;;;;17.38;7.90;;;5.50;99.90;;;;;;5070590;28;20038;-68
2022/12/05 07:01:42;;;;;;;13.23;6.78;;;5.50;99.90;;;;;;5071142;28;20044;-66
2022/12/05 07:04:23;;;;;;;14.43;7.37;;;5.50;99.90;;;;;;5070076;28;20480;-67
2022/12/05 07:06:49;;;;;;;13.35;7.50;;;5.50;99.90;;;;;;5071077;28;20040;-68
2022/12/05 07:09:17;;;;;;;12.65;6.75;;;5.50;99.90;;;;;;5070976;28;20094;-68
2022/12/05 07:11:46;;;;;;;16.50;7.43;;;5.50;99.90;;;;;;5070802;28;20098;-67
2022/12/05 07:14:12;;;;;;;13.25;7.15;;;5.50;99.90;;;;;;5070018;28;20105;-67
2022/12/05 07:16:37;;;;;;;12.70;6.97;;;5.50;99.90;;;;;;5070552;28;20041;-68
2022/12/05 07:19:03;;;;;;;11.35;7.22;;;5.50;99.90;;;;;;5070736;28;20048;-67
2022/12/05 07:21:28;;;;;;;11.63;6.57;;;5.50;99.90;;;;;;5069353;28;20044;-67
2022/12/05 07:23:54;;;;;;;11.32;6.00;;;5.50;99.90;;;;;;5069868;28;20047;-68
2022/12/05 07:26:22;;;;;;;9.75;5.82;;;5.50;99.90;;;;;;5050731;28;20089;-68
2022/12/05 07:28:48;;;;;;;9.45;5.68;;;5.50;99.90;;;;;;5069298;28;20055;-68
2022/12/05 07:31:17;;;;;;;8.32;5.10;;;5.50;99.90;;;;;;5070552;28;20052;-68
2022/12/05 07:33:43;;;;;;;8.60;4.22;;;5.50;99.90;;;;;;5070022;28;20044;-68
2022/12/05 07:36:12;;;;;;;6.25;4.20;;;5.50;99.90;;;;;;5052293;28;20051;-67
2022/12/05 07:38:38;;;;;;;5.28;4.00;;;5.50;99.90;;;;;;5070616;28;20116;-67
2022/12/05 07:41:22;;;;;;;6.68;4.55;;;5.50;99.90;;;;;;5070575;28;20037;-68
2022/12/05 07:43:50;;;;;;;4.63;3.67;;;5.50;99.90;;;;;;5069743;28;20098;-69
2022/12/05 07:46:16;;;;;;;5.57;3.65;;;5.50;99.90;;;;;;5070415;28;20033;-68
2022/12/05 07:48:42;;;;;;;5.20;3.30;;;5.50;99.90;;;;;;5070479;28;20493;-68
2022/12/05 07:51:09;;;;;;;5.45;3.67;;;5.50;99.90;;;;;;5050541;28;20112;-71
2022/12/05 07:53:36;;;;;;;5.70;3.55;;;5.50;99.90;;;;;;5059355;28;20037;-70
2022/12/05 07:56:04;;;;;;;4.32;3.70;;;5.50;99.90;;;;;;5067611;28;20036;-67
2022/12/05 07:58:30;;;;;;;5.10;3.58;;;5.50;99.90;;;;;;5069032;28;20040;-68
2022/12/05 08:00:57;;;;;;;4.78;3.45;;;5.50;99.90;;;;;;5071378;28;20048;-68
2022/12/05 08:03:23;;;;;;;5.53;3.83;;;5.60;99.90;;;;;;5072243;28;20404;-68
2022/12/05 08:05:49;;;;;;;5.05;3.83;;;5.60;99.90;;;;;;5072966;28;20044;-68
2022/12/05 08:08:14;;;;;;;5.45;4.07;;;5.60;99.90;;;;;;5054003;28;20405;-68
2022/12/05 08:10:40;;;;;;;6.63;4.13;;;5.60;99.90;;;;;;5072143;28;20522;-68
2022/12/05 08:13:07;;;;;;;6.05;3.67;;;5.60;99.90;;;;;;5071814;28;20123;-68
2022/12/05 08:15:34;;;;;;;7.30;4.25;;;5.60;99.90;;;;;;5069209;28;20519;-69
2022/12/05 08:18:00;;;;;;;7.75;5.07;;;5.60;99.90;;;;;;5070029;28;20037;-67
2022/12/05 08:20:25;;;;;;;7.53;4.45;;;5.60;99.90;;;;;;5064591;28;20507;-68
2022/12/05 08:22:52;;;;;;;6.20;4.10;;;5.60;99.90;;;;;;5053826;28;20054;-67
2022/12/05 08:25:18;;;;;;;5.97;3.90;;;5.60;99.90;;;;;;5033055;28;20052;-68
2022/12/05 08:27:44;;;;;;;7.93;4.13;;;5.60;99.90;;;;;;5053835;28;20048;-68
2022/12/05 08:30:09;;;;;;;6.10;4.22;;;5.60;99.90;;;;;;5053347;28;20041;-68
2022/12/05 08:32:35;;;;;;;7.07;4.07;;;5.60;99.90;;;;;;5053415;28;20068;-69
2022/12/05 08:35:00;;;;;;;7.25;4.38;;;5.60;99.90;;;;;;5053947;28;20044;-69
2022/12/05 08:37:26;;;;;;;6.05;4.25;;;5.60;99.90;;;;;;5072640;28;20116;-67
2022/12/05 08:39:52;;;;;;;7.07;4.57;;;5.70;99.90;;;;;;5073142;28;20033;-68
2022/12/05 08:42:17;;;;;;;8.20;4.25;;;5.70;99.90;;;;;;5072897;28;20041;-67
2022/12/05 08:44:43;;;;;;;7.03;4.50;;;5.70;99.90;;;;;;5070933;28;20048;-69
2022/12/05 08:47:08;;;;;;;8.00;4.60;;;5.70;99.90;;;;;;5072143;28;20047;-68
2022/12/05 08:49:34;;;;;;;8.57;4.63;;;5.60;99.90;;;;;;5054829;28;20043;-69
2022/12/05 08:51:59;;;;;;;5.50;4.00;;;5.60;99.90;;;;;;5073016;28;20455;-65
2022/12/05 08:54:25;;;;;;;5.15;4.22;;;5.60;99.90;;;;;;5062911;28;20040;-70
2022/12/05 08:56:51;;;;;;;10.32;4.78;;;5.60;99.90;;;;;;5056380;28;20032;-66
2022/12/05 08:59:17;;;;;;;9.15;4.68;;;5.60;99.90;;;;;;5066356;28;20041;-66
2022/12/05 09:01:42;;;;;;;7.35;4.60;;;5.70;99.90;;;;;;5068140;28;20028;-67
2022/12/05 09:04:08;;;;;;;6.97;4.95;;;5.60;99.90;;;;;;5062703;28;20501;-67
2022/12/05 09:06:34;;;;;;;6.93;5.00;;;5.60;99.90;;;;;;5061991;28;20048;-67
2022/12/05 09:09:04;;;;;;;6.75;4.00;;;5.60;99.90;;;;;;5063203;28;20101;-67
2022/12/05 09:11:33;;;;;;;8.02;4.13;;;5.60;99.90;;;;;;5058452;28;20083;-68
2022/12/05 09:14:00;;;;;;;6.90;4.68;;;5.60;99.90;;;;;;5071738;28;20160;-66
2022/12/05 09:16:28;;;;;;;7.03;4.20;;;5.60;99.90;;;;;;5072416;28;20089;-68
2022/12/05 09:18:55;;;;;;;8.30;5.15;;;5.60;99.90;;;;;;5072121;28;20037;-67
2022/12/05 09:21:23;;;;;;;7.68;4.65;;;5.60;99.90;;;;;;5072142;28;20040;-66
2022/12/05 09:23:50;;;;;;;8.07;4.80;;;5.60;99.90;;;;;;5071553;28;20135;-67
2022/12/05 09:26:22;;;;;;;8.00;4.75;;;5.60;99.90;;;;;;5070755;28;20040;-68
2022/12/05 09:28:48;;;;;;;15.68;5.53;;;5.60;99.90;;;;;;5065999;28;20170;-68
2022/12/05 09:31:16;;;;;;;10.00;4.68;;;5.60;99.90;;;;;;5059480;28;20093;-67
2022/12/05 09:33:43;;;;;;;10.13;5.35;;;5.60;99.90;;;;;;5057941;28;20037;-67
2022/12/05 09:36:14;;;;;;;10.57;5.05;;;5.60;99.90;;;;;;5049942;28;20052;-68
2022/12/05 09:38:40;;;;;;;10.52;4.65;;;5.60;99.90;;;;;;5050704;28;20033;-68
2022/12/05 09:42:03;;;;;;;7.72;4.90;;;5.60;99.90;;;;;;5051976;28;20520;-66
2022/12/05 09:44:34;;;;;;;7.55;5.38;;;5.50;99.90;;;;;;5050627;28;20091;-67
2022/12/05 09:47:07;;;;;;;7.65;4.35;;;5.50;99.90;;;;;;5059537;28;20382;-67
2022/12/05 09:49:33;;;;;;;;;;;5.60;99.90;;;;;;5053931;28;20129;-68
2022/12/05 09:52:00;;;;;;;7.50;4.95;;;5.50;99.90;;;;;;5071469;28;20027;-68
2022/12/05 09:54:27;;;;;;;8.43;4.97;;;5.50;99.90;;;;;;5070414;28;20044;-67
2022/12/05 09:56:52;;;;;;;10.15;5.03;;;5.50;99.90;;;;;;5069771;28;20036;-69
2022/12/05 09:59:19;;;;;;;8.23;5.43;;;5.50;99.90;;;;;;5068834;28;20548;-67
2022/12/05 10:02:02;;;;;;;10.10;5.57;;;5.50;99.90;;;;;;5068047;28;20036;-69
2022/12/05 10:05:10;;;;;;;9.23;5.40;;;5.50;99.90;;;;;;5066413;28;20040;-69
2022/12/05 10:07:50;;;;;;;9.55;5.38;;;5.50;99.90;;;;;;5070700;28;20060;-69
2022/12/05 10:10:53;;;;;;;14.90;5.70;;;5.50;99.90;;;;;;5071114;28;20511;-69
2022/12/05 10:13:28;;;;;;;8.88;4.68;;;5.50;99.90;;;;;;5071337;28;20066;-69
2022/12/05 10:15:58;;;;;;;6.07;4.30;;;5.50;99.90;;;;;;5062097;28;20045;-68
2022/12/05 10:18:51;;;;;;;9.90;4.40;;;5.50;99.90;;;;;;5061841;28;20041;-68
2022/12/05 10:21:47;;;;;;;7.68;4.72;;;5.50;99.90;;;;;;5053025;28;20035;-69
2022/12/05 10:24:22;;;;;;;8.88;4.45;;;5.50;99.90;;;;;;5068025;28;20446;-69
2022/12/05 10:26:57;;;;;;;10.73;4.55;;;5.50;99.90;;;;;;5068379;28;20408;-69
2022/12/05 10:29:26;;;;;;;7.35;4.53;;;5.50;99.90;;;;;;5069790;28;20044;-67
2022/12/05 10:31:59;;;;;;;7.32;4.93;;;5.50;99.90;;;;;;5069462;28;20493;-66
2022/12/05 10:34:37;;;;;;;6.55;4.32;;;5.50;99.90;;;;;;5070092;28;20456;-66
2022/12/05 10:37:21;;;;;;;6.72;4.47;;;5.40;99.90;;;;;;5069635;28;20044;-66
2022/12/05 10:39:48;;;;;;;9.75;4.53;;;5.50;99.90;;;;;;5070668;28;20043;-67
2022/12/05 10:42:18;;;;;;;10.23;5.40;;;5.50;99.90;;;;;;5063931;28;20032;-67
2022/12/05 10:44:44;;;;;;;9.10;4.30;;;5.50;99.90;;;;;;5060425;28;20041;-67
2022/12/05 10:47:11;;;;;;;8.38;5.15;;;5.40;99.90;;;;;;5057775;28;20055;-67
2022/12/05 10:49:37;;;;;;;9.45;5.53;;;5.50;99.90;;;;;;5059246;28;20087;-67
2022/12/05 10:52:03;;;;;;;8.98;5.65;;;5.50;99.90;;;;;;5059506;28;20041;-67
2022/12/05 10:54:34;;;;;;;8.82;5.30;;;5.40;99.90;;;;;;5061294;28;20032;-68
2022/12/05 10:56:59;;;;;;;8.65;5.53;;;5.40;99.90;;;;;;5070763;28;20513;-68
2022/12/05 10:59:43;;;;;;;9.77;5.15;;;5.40;99.90;;;;;;5070695;28;20041;-67
2022/12/05 11:02:23;;;;;;;16.58;6.70;;;5.40;99.90;;;;;;5058414;28;20095;-67
2022/12/05 11:04:50;;;;;;;11.75;6.47;;;5.50;99.90;;;;;;5049983;28;20041;-67
2022/12/05 11:07:36;;;;;;;11.90;5.47;;;5.50;99.90;;;;;;5050629;28;20510;-66
2022/12/05 11:10:24;;;;;;;13.25;5.10;;;5.50;99.90;;;;;;5050500;28;20052;-67
2022/12/05 11:12:50;;;;;;;13.57;6.60;;;5.50;99.90;;;;;;5049348;28;20067;-67
2022/12/05 11:15:21;;;;;;;11.23;5.78;;;5.50;99.90;;;;;;5049645;28;20067;-68
2022/12/05 11:17:47;;;;;;;11.63;5.65;;;5.50;99.90;;;;;;5050739;28;20117;-67
2022/12/05 11:20:19;;;;;;;11.93;6.10;;;5.50;99.90;;;;;;5050491;28;20044;-67
2022/12/05 11:22:46;;;;;;;11.18;5.57;;;5.50;99.90;;;;;;5061626;28;20081;-67
2022/12/05 11:25:27;;;;;;;10.73;5.43;;;5.50;99.90;;;;;;5069586;28;20403;-66
2022/12/05 11:27:54;;;;;;;10.90;5.00;;;5.50;99.90;;;;;;5070579;28;20079;-67
2022/12/05 11:30:26;;;;;;;9.80;5.00;;;5.60;99.90;;;;;;5070775;28;20117;-66
2022/12/05 11:33:11;;;;;;;;;;;5.50;99.90;;;;;;5071042;28;20087;-66
2022/12/05 11:35:36;;;;;;;10.65;5.28;;;5.50;99.90;;;;;;5071846;28;19943;-66
2022/12/05 11:38:04;;;;;;;11.75;5.88;;;5.50;99.90;;;;;;5074709;28;20049;-67
2022/12/05 11:40:40;;;;;;;10.02;5.25;;;5.50;99.90;;;;;;5074503;28;20033;-66
2022/12/05 11:43:05;;;;;;;8.90;4.82;;;5.50;99.90;;;;;;5074313;28;20033;-67
2022/12/05 11:46:03;;;;;;;9.88;5.75;;;5.50;99.90;;;;;;5073434;28;20049;-67
2022/12/05 11:48:57;;;;;;;11.95;5.60;;;5.50;99.90;;;;;;5056228;28;20045;-67
2022/12/05 11:51:37;;;;;;;10.10;4.97;;;5.50;99.90;;;;;;5074415;28;20052;-66
2022/12/05 11:54:40;;;;;;;10.75;4.47;;;5.50;99.90;;;;;;5073636;28;20044;-68
2022/12/05 11:57:11;;;;;;;9.68;4.57;;;5.50;99.90;;;;;;5072892;28;20165;-67
2022/12/05 12:00:06;;;;;;;7.22;4.25;;;5.50;99.90;;;;;;5073995;28;20124;-67
2022/12/05 12:02:49;;;;;;;8.95;5.25;;;5.50;99.90;;;;;;5074097;28;20121;-67
2022/12/05 12:05:48;;;;;;;10.80;4.72;;;5.50;99.90;;;;;;5073349;28;20524;-66
2022/12/05 12:08:23;;;;;;;10.30;5.32;;;5.50;99.90;;;;;;5074362;28;20044;-68
2022/12/05 12:11:18;;;;;;;8.15;4.72;;;5.50;99.90;;;;;;5074204;28;20041;-67
2022/12/05 12:13:56;;;;;;;9.10;4.85;;;5.50;99.90;;;;;;5036713;28;20052;-66
2022/12/05 12:16:48;;;;;;;11.20;5.18;;;5.50;99.90;;;;;;5073854;28;20047;-66
2022/12/05 12:19:29;;;;;;;8.10;4.70;;;5.50;99.90;;;;;;5055775;28;20076;-67
2022/12/05 12:22:21;;;;;;;12.38;5.22;;;5.50;99.90;;;;;;5074123;28;20107;-67
2022/12/05 12:25:12;;;;;;;6.65;4.03;;;5.50;99.90;;;;;;5073031;28;20048;-67
2022/12/05 12:28:04;;;;;;;6.70;4.35;;;5.50;99.90;;;;;;5073662;28;20052;-67
2022/12/05 12:31:24;;;;;;;5.87;4.17;;;5.50;99.90;;;;;;5055521;28;20501;-66
2022/12/05 12:34:13;;;;;;;7.93;4.45;;;5.50;99.90;;;;;;5049868;28;20468;-67
2022/12/05 12:36:53;;;;;;;7.03;3.70;;;5.50;99.90;;;;;;5072316;28;20645;-67
2022/12/05 12:39:49;;;;;;;6.13;3.95;;;5.50;99.90;;;;;;5073268;28;20043;-67
2022/12/05 12:42:23;;;;;;;5.70;3.38;;;5.50;99.90;;;;;;5073379;28;20040;-67
2022/12/05 12:45:18;;;;;;;5.30;3.33;;;5.50;99.90;;;;;;5072492;28;20107;-67
2022/12/05 12:48:00;;;;;;;6.22;3.15;;;5.50;99.90;;;;;;5070005;28;20091;-67
2022/12/05 12:50:29;;;;;;;7.63;3.88;;;5.50;99.90;;;;;;5073125;28;20036;-68
2022/12/05 12:53:16;;;;;;;6.00;3.35;;;5.50;99.90;;;;;;5073230;28;20075;-67
2022/12/05 12:56:04;;;;;;;8.40;4.10;;;5.50;99.90;;;;;;5072284;28;20040;-67
2022/12/05 12:58:50;;;;;;;5.72;3.28;;;5.50;99.90;;;;;;5073092;28;20075;-67
2022/12/05 13:01:27;;;;;;;5.85;3.72;;;5.50;99.90;;;;;;5072943;28;20079;-67
2022/12/05 13:04:01;;;;;;;4.60;2.95;;;5.50;99.90;;;;;;5072240;28;20076;-67
2022/12/05 13:06:48;;;;;;;5.30;3.55;;;5.50;99.90;;;;;;5072763;28;20111;-67
2022/12/05 13:09:23;;;;;;;4.43;3.03;;;5.50;99.90;;;;;;5073379;28;20432;-67
2022/12/05 13:11:50;;;;;;;6.25;2.85;;;5.50;99.90;;;;;;5072580;28;20039;-66
2022/12/05 13:14:22;;;;;;;7.32;3.40;;;5.50;99.90;;;;;;5071911;28;20115;-67
2022/12/05 13:16:51;;;;;;;6.95;2.88;;;5.50;99.90;;;;;;5072494;28;20551;-68
2022/12/05 13:19:39;;;;;;;8.02;3.28;;;5.50;99.90;;;;;;5071196;28;20151;-68